Navigator — WDE7302 — position and weather

sailwx.info

Track history (hours):
 
Tides and Currents Weather Stations Pressure Air Temp Water Temp Dewpoint Dewpoint Depression Visibility Wind Speed Wind Dir Waves Ship Positions

Navigator

Owner: GT 108 Inc., Dover, DE. More information available from US FCC via Universal Licensing System and Coast Guard Vessel Documentation Center.

Last reported at 2017-Dec-29 18:59 UTC. Time now 2018-Jan-21 03:15 UTC.
Position N 40°42' W 073°58'.
Warning: this ship's position is 22 days out of date.

Length 32 m; draft 4.7 m.

Type: Tug. MMSI: 366741180.

Date/timePositionNaut miles runAvg speedWind from/ knotsBaromVisibWave heightAir tempDewpointWater temp
2017-Dec-29 18:59N 40°42' W 073°58'0 0.2
2017-Dec-29 18:30N 40°42' W 073°58'5 9.2
2017-Dec-29 18:00N 40°39' W 074°03'4 8.8
2017-Dec-29 17:30N 40°39' W 074°09'5 9.6
2017-Dec-29 17:00N 40°43' W 074°06'2 3.8
2017-Dec-29 16:30N 40°44' W 074°05'0 0.1
2017-Dec-29 16:00N 40°44' W 074°05'0 0.8
2017-Dec-29 15:30N 40°45' W 074°04'0 0.0
2017-Dec-29 15:00N 40°45' W 074°04'0 0.0
2017-Dec-29 14:29N 40°45' W 074°04'0 0.0
2017-Dec-29 14:00N 40°45' W 074°04'0 0.0
2017-Dec-29 13:30N 40°45' W 074°04'0 0.0
2017-Dec-29 12:59N 40°45' W 074°04'0 0.0
2017-Dec-29 12:27N 40°45' W 074°04'0 0.0
2017-Dec-29 11:58N 40°45' W 074°04'0 0.0
2017-Dec-29 08:02N 40°45' W 074°04'0 0.0
2017-Dec-29 07:34N 40°45' W 074°04'0 0.1
2017-Dec-29 07:30N 40°45' W 074°04'0 0.0
2017-Dec-29 05:37N 40°45' W 074°04'0 0.0
2017-Dec-29 05:30N 40°45' W 074°04'0 0.2
2017-Dec-29 05:00N 40°45' W 074°05'0 0.1
2017-Dec-29 04:30N 40°45' W 074°05'0 0.1
2017-Dec-29 04:00N 40°45' W 074°05'0 0.1
2017-Dec-29 03:30N 40°45' W 074°05'0 0.0
2017-Dec-29 02:58N 40°45' W 074°05'0 0.0
2017-Dec-29 02:30N 40°45' W 074°05'0 0.3
2017-Dec-29 02:00N 40°45' W 074°04'0 0.0
2017-Dec-29 01:30N 40°45' W 074°04'0 0.0
2017-Dec-29 00:59N 40°45' W 074°04'0 0.0
2017-Dec-29 00:30N 40°45' W 074°04'0 0.0
2017-Dec-29 00:00N 40°45' W 074°04'0 0.0
2017-Dec-28 23:30N 40°45' W 074°04'0 0.0
2017-Dec-28 23:00N 40°45' W 074°04'0 0.0
2017-Dec-28 22:29N 40°45' W 074°04'0 0.0
2017-Dec-28 22:00N 40°45' W 074°04'0 0.0
2017-Dec-28 21:30N 40°45' W 074°04'0 0.0
2017-Dec-28 20:59N 40°45' W 074°04'0 0.0
2017-Dec-28 20:30N 40°45' W 074°04'0 0.0
2017-Dec-28 20:00N 40°45' W 074°04'0 0.0
2017-Dec-28 19:30N 40°45' W 074°04'0 0.0
2017-Dec-28 18:59N 40°45' W 074°04'0 0.0
2017-Dec-28 18:30N 40°45' W 074°04'0 0.0
2017-Dec-28 18:00N 40°45' W 074°04'0 0.0
2017-Dec-28 17:30N 40°45' W 074°04'0 0.0
2017-Dec-28 17:00N 40°45' W 074°04'0 0.0
2017-Dec-28 16:30N 40°45' W 074°04'0 0.0
2017-Dec-28 16:00N 40°45' W 074°04'0 0.0
2017-Dec-28 15:30N 40°45' W 074°04'0 0.0
2017-Dec-28 15:00N 40°45' W 074°04'0 0.0
2017-Dec-28 14:30N 40°45' W 074°04'0 0.0
2017-Dec-28 14:00N 40°45' W 074°04'0 0.0
2017-Dec-28 13:29N 40°45' W 074°04'0 0.0
2017-Dec-28 13:00N 40°45' W 074°04'0 0.0
2017-Dec-28 12:30N 40°45' W 074°04'0 0.0
2017-Dec-28 12:00N 40°45' W 074°04'0 0.0
2017-Dec-28 11:29N 40°45' W 074°04'0 0.0
2017-Dec-28 11:00N 40°45' W 074°04'0 0.0
2017-Dec-28 09:25N 40°45' W 074°04'0 0.0
2017-Dec-28 08:55N 40°45' W 074°04'0 0.0
2017-Dec-28 05:23N 40°45' W 074°04'0 0.0
2017-Dec-28 04:10N 40°45' W 074°04'0 0.0
2017-Dec-28 03:41N 40°45' W 074°04'0 0.0
2017-Dec-28 03:27N 40°45' W 074°04'0 0.0
2017-Dec-28 02:56N 40°45' W 074°04'0 0.0
2017-Dec-28 02:25N 40°45' W 074°04'0 0.0
2017-Dec-28 01:54N 40°45' W 074°04'0 0.0
2017-Dec-27 23:08N 40°45' W 074°04'0 0.0
2017-Dec-27 23:00N 40°45' W 074°04'0 0.0
2017-Dec-27 22:30N 40°45' W 074°04'0 0.0
2017-Dec-27 22:00N 40°45' W 074°04'0 0.0
2017-Dec-27 21:30N 40°45' W 074°04'0 0.0
2017-Dec-27 21:00N 40°45' W 074°04'0 0.0
2017-Dec-27 20:29N 40°45' W 074°04'0 0.0
2017-Dec-27 20:00N 40°45' W 074°04'0 0.0
2017-Dec-27 19:30N 40°45' W 074°04'0 0.0
2017-Dec-27 19:00N 40°45' W 074°04'0 0.0
2017-Dec-27 18:30N 40°45' W 074°04'0 0.0
2017-Dec-27 18:00N 40°45' W 074°04'0 0.0
2017-Dec-27 17:30N 40°45' W 074°04'  
2017-Dec-25 13:03N 40°45' W 074°04'0 0.1
2017-Dec-25 12:59N 40°45' W 074°04'0 0.0
2017-Dec-25 12:30N 40°45' W 074°04'0 0.0
2017-Dec-25 12:00N 40°45' W 074°04'0 0.0
2017-Dec-25 11:30N 40°45' W 074°04'0 0.0
2017-Dec-25 11:00N 40°45' W 074°04'0 0.0
2017-Dec-25 10:30N 40°45' W 074°04'0 0.0
2017-Dec-25 10:00N 40°45' W 074°04'0 0.0
2017-Dec-25 09:30N 40°45' W 074°04'0 0.0
2017-Dec-25 09:00N 40°45' W 074°04'0 0.0
2017-Dec-25 08:30N 40°45' W 074°04'0 0.0
2017-Dec-25 08:00N 40°45' W 074°04'0 0.0
2017-Dec-25 07:30N 40°45' W 074°04'0 0.0
2017-Dec-25 07:00N 40°45' W 074°04'0 0.0
2017-Dec-25 06:30N 40°45' W 074°04'0 0.0
2017-Dec-25 06:00N 40°45' W 074°04'0 0.0
2017-Dec-25 05:30N 40°45' W 074°04'0 0.0
2017-Dec-25 05:00N 40°45' W 074°04'0 0.0
2017-Dec-25 04:30N 40°45' W 074°04'0 0.0
2017-Dec-25 04:00N 40°45' W 074°04'0 0.0
2017-Dec-25 03:30N 40°45' W 074°04'0 0.0
2017-Dec-25 03:00N 40°45' W 074°04'0 0.0
2017-Dec-25 02:30N 40°45' W 074°04'0 0.0
2017-Dec-25 02:00N 40°45' W 074°04'0 0.0
2017-Dec-25 01:30N 40°45' W 074°04'0 0.0
2017-Dec-25 01:00N 40°45' W 074°04'0 0.0
2017-Dec-25 00:30N 40°45' W 074°04'0 0.0
2017-Dec-25 00:00N 40°45' W 074°04'0 0.0
2017-Dec-24 23:30N 40°45' W 074°04'0 0.0
2017-Dec-24 23:00N 40°45' W 074°04'0 0.0
2017-Dec-24 22:29N 40°45' W 074°04'0 0.0
2017-Dec-24 22:00N 40°45' W 074°04'0 0.0
2017-Dec-24 21:30N 40°45' W 074°04'0 0.0
2017-Dec-24 20:59N 40°45' W 074°04'0 0.0
2017-Dec-24 20:30N 40°45' W 074°04'0 0.0
2017-Dec-24 20:00N 40°45' W 074°04'0 0.0
2017-Dec-24 19:30N 40°45' W 074°04'0 0.0
2017-Dec-24 19:00N 40°45' W 074°04'0 0.0
2017-Dec-24 18:30N 40°45' W 074°04'0 0.0
2017-Dec-24 18:00N 40°45' W 074°04'0 0.0
2017-Dec-24 17:30N 40°45' W 074°04'0 0.0
2017-Dec-24 17:00N 40°45' W 074°04'0 0.0
2017-Dec-24 16:30N 40°45' W 074°04'0 0.0
2017-Dec-24 16:00N 40°45' W 074°04'0 0.0
2017-Dec-24 15:30N 40°45' W 074°04'0 0.0
2017-Dec-24 15:00N 40°45' W 074°04'0 0.0
2017-Dec-24 14:30N 40°45' W 074°04'0 0.0
2017-Dec-24 14:00N 40°45' W 074°04'0 0.0
2017-Dec-24 13:00N 40°45' W 074°04'0 0.0
2017-Dec-24 12:30N 40°45' W 074°04'0 0.0
2017-Dec-24 12:00N 40°45' W 074°04'0 0.0
2017-Dec-24 11:30N 40°45' W 074°04'0 0.0
2017-Dec-24 11:00N 40°45' W 074°04'0 0.0
2017-Dec-24 10:30N 40°45' W 074°04'0 0.0
2017-Dec-24 10:00N 40°45' W 074°04'0 0.0
2017-Dec-24 09:30N 40°45' W 074°04'0 0.0
2017-Dec-24 09:00N 40°45' W 074°04'0 0.0
2017-Dec-24 08:30N 40°45' W 074°04'0 0.0
2017-Dec-24 08:00N 40°45' W 074°04'0 0.0
2017-Dec-24 07:30N 40°45' W 074°04'0 0.0
2017-Dec-24 07:00N 40°45' W 074°04'0 0.0
2017-Dec-24 06:29N 40°45' W 074°04'0 0.0
2017-Dec-24 06:00N 40°45' W 074°04'0 0.0
2017-Dec-24 05:30N 40°45' W 074°04'0 0.0
2017-Dec-24 05:00N 40°45' W 074°04'0 0.0
2017-Dec-24 04:30N 40°45' W 074°04'0 0.0
2017-Dec-24 04:00N 40°45' W 074°04'0 0.0
2017-Dec-24 03:29N 40°45' W 074°04'0 0.0
2017-Dec-24 03:00N 40°45' W 074°04'0 0.0
2017-Dec-24 02:30N 40°45' W 074°04'0 0.0
2017-Dec-24 02:00N 40°45' W 074°04'0 0.0
2017-Dec-24 01:30N 40°45' W 074°04'0 0.0
2017-Dec-24 01:00N 40°45' W 074°04'0 0.0
2017-Dec-24 00:30N 40°45' W 074°04'0 0.0
2017-Dec-24 00:00N 40°45' W 074°04'0 0.0
2017-Dec-23 23:30N 40°45' W 074°04'0 0.0
2017-Dec-23 23:00N 40°45' W 074°04'0 0.0
2017-Dec-23 22:30N 40°45' W 074°04'0 0.0
2017-Dec-23 22:00N 40°45' W 074°04'0 0.0
2017-Dec-23 21:30N 40°45' W 074°04'0 0.0
2017-Dec-23 21:00N 40°45' W 074°04'0 0.0
2017-Dec-23 20:30N 40°45' W 074°04'0 0.0
2017-Dec-23 20:00N 40°45' W 074°04'0 0.0
2017-Dec-23 19:30N 40°45' W 074°04'0 0.0
2017-Dec-23 19:00N 40°45' W 074°04'0 0.0
2017-Dec-23 18:30N 40°45' W 074°04'0 0.0
2017-Dec-23 18:00N 40°45' W 074°04'0 0.0
2017-Dec-23 17:30N 40°45' W 074°04'0 0.0
2017-Dec-23 17:00N 40°45' W 074°04'0 0.0
2017-Dec-23 16:30N 40°45' W 074°04'0 0.0
2017-Dec-23 16:00N 40°45' W 074°04'0 0.0
2017-Dec-23 15:30N 40°45' W 074°04'0 0.0
2017-Dec-23 15:00N 40°45' W 074°04'0 0.0
2017-Dec-23 14:30N 40°45' W 074°04'0 0.0
2017-Dec-23 14:00N 40°45' W 074°04'0 0.0
2017-Dec-23 13:30N 40°45' W 074°04'0 0.0
2017-Dec-23 13:00N 40°45' W 074°04'0 0.0
2017-Dec-23 12:30N 40°45' W 074°04'0 0.0
2017-Dec-23 12:00N 40°45' W 074°04'0 0.0
2017-Dec-23 11:30N 40°45' W 074°04'0 0.0
2017-Dec-23 11:00N 40°45' W 074°04'0 0.0
2017-Dec-23 10:30N 40°45' W 074°04'0 0.0
2017-Dec-23 10:00N 40°45' W 074°04'0 0.0
2017-Dec-23 09:30N 40°45' W 074°04'0 0.0
2017-Dec-23 09:00N 40°45' W 074°04'0 0.0
2017-Dec-23 08:30N 40°45' W 074°04'0 0.0
2017-Dec-23 08:00N 40°45' W 074°04'0 0.0
2017-Dec-23 07:30N 40°45' W 074°04'0 0.0
2017-Dec-23 07:00N 40°45' W 074°04'0 0.0
2017-Dec-23 06:30N 40°45' W 074°04'0 0.0
2017-Dec-23 06:00N 40°45' W 074°04'0 0.0
2017-Dec-23 05:30N 40°45' W 074°04'0 0.0
2017-Dec-23 05:00N 40°45' W 074°04'0 0.0
2017-Dec-23 04:30N 40°45' W 074°04'0 0.0
2017-Dec-23 04:00N 40°45' W 074°04'0 0.0
2017-Dec-23 03:30N 40°45' W 074°04'0 0.0
2017-Dec-23 03:00N 40°45' W 074°04'0 0.0
2017-Dec-23 02:30N 40°45' W 074°04'0 0.0
2017-Dec-23 02:00N 40°45' W 074°04'0 0.0
2017-Dec-23 01:30N 40°45' W 074°04'0 0.0
2017-Dec-23 01:00N 40°45' W 074°04'0 0.0
2017-Dec-23 00:30N 40°45' W 074°04'0 0.0
2017-Dec-23 00:00N 40°45' W 074°04'0 0.0
2017-Dec-22 23:30N 40°45' W 074°04'0 0.0
2017-Dec-22 23:00N 40°45' W 074°04'0 0.0
2017-Dec-22 22:30N 40°45' W 074°04'0 0.0
2017-Dec-22 22:00N 40°45' W 074°04'0 0.0
2017-Dec-22 21:30N 40°45' W 074°04'0 0.0
2017-Dec-22 21:00N 40°45' W 074°04'0 0.0
2017-Dec-22 20:30N 40°45' W 074°04'0 0.0
2017-Dec-22 20:00N 40°45' W 074°04'0 0.0
2017-Dec-22 19:30N 40°45' W 074°04'0 0.0
2017-Dec-22 19:00N 40°45' W 074°04'0 0.0
2017-Dec-22 18:30N 40°45' W 074°04'0 0.0
2017-Dec-22 18:00N 40°45' W 074°04'0 0.0
2017-Dec-22 17:30N 40°45' W 074°04'0 0.0
2017-Dec-22 17:00N 40°45' W 074°04'0 0.0
2017-Dec-22 16:30N 40°45' W 074°04'0 0.0
2017-Dec-22 16:00N 40°45' W 074°04'0 0.0
2017-Dec-22 15:30N 40°45' W 074°04'0 0.0
2017-Dec-22 15:00N 40°45' W 074°04'0 0.0
2017-Dec-22 14:30N 40°45' W 074°04'0 0.0
2017-Dec-22 14:00N 40°45' W 074°04'0 0.0
2017-Dec-22 13:30N 40°45' W 074°04'0 0.0
2017-Dec-22 13:00N 40°45' W 074°04'0 0.0
2017-Dec-22 12:30N 40°45' W 074°04'0 0.0
2017-Dec-22 12:00N 40°45' W 074°04'0 0.0
2017-Dec-22 11:30N 40°45' W 074°04'0 0.0
2017-Dec-22 11:00N 40°45' W 074°04'0 0.0
2017-Dec-22 10:30N 40°45' W 074°04'0 0.0
2017-Dec-22 10:00N 40°45' W 074°04'0 0.0
2017-Dec-22 09:30N 40°45' W 074°04'0 0.0
2017-Dec-22 09:00N 40°45' W 074°04'0 0.0
2017-Dec-22 08:30N 40°45' W 074°04'0 0.0
2017-Dec-22 07:59N 40°45' W 074°04'0 0.0
2017-Dec-22 07:30N 40°45' W 074°04'0 0.0
2017-Dec-22 07:00N 40°45' W 074°04'0 0.0
2017-Dec-22 06:30N 40°45' W 074°04'0 0.0
2017-Dec-22 06:00N 40°45' W 074°04'0 0.0
2017-Dec-22 05:30N 40°45' W 074°04'0 0.0
2017-Dec-22 05:00N 40°45' W 074°04'0 0.0
2017-Dec-22 04:30N 40°45' W 074°04'0 0.0
2017-Dec-22 04:00N 40°45' W 074°04'0 0.0
2017-Dec-22 03:29N 40°45' W 074°04'0 0.0
2017-Dec-22 03:00N 40°45' W 074°04'0 0.0
2017-Dec-22 02:30N 40°45' W 074°04'0 0.0
2017-Dec-22 02:00N 40°45' W 074°04'0 0.0
2017-Dec-22 01:30N 40°45' W 074°04'0 0.0
2017-Dec-22 01:00N 40°45' W 074°04'0 0.0
2017-Dec-22 00:30N 40°45' W 074°04'0 0.0
2017-Dec-22 00:00N 40°45' W 074°04'0 0.0
2017-Dec-21 23:30N 40°45' W 074°04'0 0.0
2017-Dec-21 23:00N 40°45' W 074°04'0 0.0
2017-Dec-21 22:30N 40°45' W 074°04'0 0.0
2017-Dec-21 22:00N 40°45' W 074°04'0 0.0
2017-Dec-21 21:30N 40°45' W 074°04'0 0.0
2017-Dec-21 21:00N 40°45' W 074°04'0 0.0
2017-Dec-21 20:30N 40°45' W 074°04'0 0.0
2017-Dec-21 20:00N 40°45' W 074°04'0 0.0
2017-Dec-21 19:30N 40°45' W 074°04'0 0.0
2017-Dec-21 19:00N 40°45' W 074°04'0 0.0
2017-Dec-21 18:30N 40°45' W 074°04'0 0.0
2017-Dec-21 18:00N 40°45' W 074°04'0 0.0
2017-Dec-21 17:30N 40°45' W 074°04'0 0.0
2017-Dec-21 17:00N 40°45' W 074°04'0 0.0
2017-Dec-21 16:30N 40°45' W 074°04'0 0.0
2017-Dec-21 16:00N 40°45' W 074°04'0 0.0
2017-Dec-21 15:29N 40°45' W 074°04'0 0.0
2017-Dec-21 15:00N 40°45' W 074°04'0 0.0
2017-Dec-21 14:29N 40°45' W 074°04'0 0.0
2017-Dec-21 14:00N 40°45' W 074°04'0 0.0
2017-Dec-21 13:30N 40°45' W 074°04'0 0.0
2017-Dec-21 13:00N 40°45' W 074°04'0 0.0
2017-Dec-21 12:30N 40°45' W 074°04'0 0.0
2017-Dec-21 12:00N 40°45' W 074°04'0 0.0
2017-Dec-21 11:30N 40°45' W 074°04'0 0.0
2017-Dec-21 11:00N 40°45' W 074°04'0 0.0
2017-Dec-21 10:30N 40°45' W 074°04'0 0.0
2017-Dec-21 10:00N 40°45' W 074°04'0 0.0
2017-Dec-21 09:30N 40°45' W 074°04'0 0.0
2017-Dec-21 09:00N 40°45' W 074°04'0 0.0
2017-Dec-21 08:30N 40°45' W 074°04'0 0.0
2017-Dec-21 08:00N 40°45' W 074°04'0 0.0
2017-Dec-21 07:30N 40°45' W 074°04'0 0.0
2017-Dec-21 07:00N 40°45' W 074°04'0 0.0
2017-Dec-21 06:30N 40°45' W 074°04'0 0.0
2017-Dec-21 06:00N 40°45' W 074°04'0 0.0
2017-Dec-21 05:29N 40°45' W 074°04'0 0.2
2017-Dec-21 05:00N 40°45' W 074°04'0 0.0
2017-Dec-21 04:30N 40°45' W 074°04'0 0.0
2017-Dec-21 04:00N 40°45' W 074°04'0 0.0
2017-Dec-21 03:30N 40°45' W 074°04'0 0.0
2017-Dec-21 03:00N 40°45' W 074°04'0 0.0
2017-Dec-21 02:30N 40°45' W 074°04'0 0.0
2017-Dec-21 02:00N 40°45' W 074°04'0 0.0
2017-Dec-21 01:30N 40°45' W 074°04'0 0.0
2017-Dec-21 01:00N 40°45' W 074°04'0 0.0
2017-Dec-21 00:30N 40°45' W 074°04'0 0.0
2017-Dec-21 00:00N 40°45' W 074°04'0 0.0
2017-Dec-20 23:30N 40°45' W 074°04'0 0.0
2017-Dec-20 23:00N 40°45' W 074°04'0 0.0
2017-Dec-20 22:30N 40°45' W 074°04'0 0.0
2017-Dec-20 22:00N 40°45' W 074°04'0 0.0
2017-Dec-20 21:30N 40°45' W 074°04'0 0.0
2017-Dec-20 21:00N 40°45' W 074°04'0 0.0
2017-Dec-20 20:30N 40°45' W 074°04'0 0.0
2017-Dec-20 20:00N 40°45' W 074°04'0 0.0
2017-Dec-20 19:30N 40°45' W 074°04'0 0.0
2017-Dec-20 19:00N 40°45' W 074°04'0 0.0
2017-Dec-20 18:30N 40°45' W 074°04'0 0.0
2017-Dec-20 18:00N 40°45' W 074°04'0 0.0
2017-Dec-20 17:30N 40°45' W 074°04'0 0.0
2017-Dec-20 17:00N 40°45' W 074°04'0 0.0
2017-Dec-20 16:30N 40°45' W 074°04'0 0.0
2017-Dec-20 16:00N 40°45' W 074°04'0 0.0
2017-Dec-20 15:30N 40°45' W 074°04'0 0.0
2017-Dec-20 15:00N 40°45' W 074°04'0 0.0
2017-Dec-20 14:30N 40°45' W 074°04'0 0.0
2017-Dec-20 14:00N 40°45' W 074°04'0 0.0
2017-Dec-20 13:30N 40°45' W 074°04'0 0.0
2017-Dec-20 13:00N 40°45' W 074°04'0 0.0
2017-Dec-20 12:30N 40°45' W 074°04'0 0.0
2017-Dec-20 12:00N 40°45' W 074°04'0 0.0
2017-Dec-20 11:30N 40°45' W 074°04'0 0.0
2017-Dec-20 11:00N 40°45' W 074°04'0 0.0
2017-Dec-20 10:30N 40°45' W 074°04'0 0.0
2017-Dec-20 10:00N 40°45' W 074°04'0 0.0
2017-Dec-20 09:30N 40°45' W 074°04'0 0.0
2017-Dec-20 09:00N 40°45' W 074°04'0 0.0
2017-Dec-20 08:30N 40°45' W 074°04'0 0.0
2017-Dec-20 08:00N 40°45' W 074°04'0 0.0
2017-Dec-20 07:30N 40°45' W 074°04'0 0.0
2017-Dec-20 07:00N 40°45' W 074°04'0 0.0
2017-Dec-20 06:30N 40°45' W 074°04'0 0.0
2017-Dec-20 06:00N 40°45' W 074°04'0 0.0
2017-Dec-20 05:30N 40°45' W 074°04'0 0.0
2017-Dec-20 05:00N 40°45' W 074°04'0 0.0
2017-Dec-20 04:30N 40°45' W 074°04'0 0.0
2017-Dec-20 04:00N 40°45' W 074°04'0 0.0
2017-Dec-20 03:30N 40°45' W 074°04'0 0.0
2017-Dec-20 03:00N 40°45' W 074°04'0 0.0
2017-Dec-20 02:30N 40°45' W 074°04'0 0.0
2017-Dec-20 02:00N 40°45' W 074°04'0 0.0
2017-Dec-20 01:30N 40°45' W 074°04'0 0.0
2017-Dec-20 01:00N 40°45' W 074°04'0 0.0
2017-Dec-20 00:30N 40°45' W 074°04'0 0.0
2017-Dec-19 23:59N 40°45' W 074°04'0 0.0
2017-Dec-19 23:30N 40°45' W 074°04'0 0.0
2017-Dec-19 23:00N 40°45' W 074°04'0 0.0
2017-Dec-19 22:30N 40°45' W 074°04'0 0.0
2017-Dec-19 22:00N 40°45' W 074°04'0 0.0
2017-Dec-19 21:30N 40°45' W 074°04'0 0.0
2017-Dec-19 21:00N 40°45' W 074°04'0 0.0
2017-Dec-19 20:30N 40°45' W 074°04'0 0.1
2017-Dec-19 19:59N 40°45' W 074°04'0 0.0
2017-Dec-19 19:30N 40°45' W 074°04'0 0.0
2017-Dec-19 19:00N 40°45' W 074°04'  
Track history (hours):
 
Tides and Currents Weather Stations Pressure Air Temp Water Temp Dewpoint Dewpoint Depression Visibility Wind Speed Wind Dir Waves Ship Positions

Navigator

Owner: GT 108 Inc., Dover, DE. More information available from US FCC via Universal Licensing System and Coast Guard Vessel Documentation Center.

Last reported at 2017-Dec-29 18:59 UTC. Time now 2018-Jan-21 03:15 UTC.
Position N 40°42' W 073°58'.
Warning: this ship's position is 22 days out of date.

Length 32 m; draft 4.7 m.

Type: Tug. MMSI: 366741180.

Date/timePositionNaut miles runAvg speedWind from/ knotsBaromVisibWave heightAir tempDewpointWater temp
2017-Dec-29 18:59N 40°42' W 073°58'0 0.2
2017-Dec-29 18:30N 40°42' W 073°58'5 9.2
2017-Dec-29 18:00N 40°39' W 074°03'4 8.8
2017-Dec-29 17:30N 40°39' W 074°09'5 9.6
2017-Dec-29 17:00N 40°43' W 074°06'2 3.8
2017-Dec-29 16:30N 40°44' W 074°05'0 0.1
2017-Dec-29 16:00N 40°44' W 074°05'0 0.8
2017-Dec-29 15:30N 40°45' W 074°04'0 0.0
2017-Dec-29 15:00N 40°45' W 074°04'0 0.0
2017-Dec-29 14:29N 40°45' W 074°04'0 0.0
2017-Dec-29 14:00N 40°45' W 074°04'0 0.0
2017-Dec-29 13:30N 40°45' W 074°04'0 0.0
2017-Dec-29 12:59N 40°45' W 074°04'0 0.0
2017-Dec-29 12:27N 40°45' W 074°04'0 0.0
2017-Dec-29 11:58N 40°45' W 074°04'0 0.0
2017-Dec-29 08:02N 40°45' W 074°04'0 0.0
2017-Dec-29 07:34N 40°45' W 074°04'0 0.1
2017-Dec-29 07:30N 40°45' W 074°04'0 0.0
2017-Dec-29 05:37N 40°45' W 074°04'0 0.0
2017-Dec-29 05:30N 40°45' W 074°04'0 0.2
2017-Dec-29 05:00N 40°45' W 074°05'0 0.1
2017-Dec-29 04:30N 40°45' W 074°05'0 0.1
2017-Dec-29 04:00N 40°45' W 074°05'0 0.1
2017-Dec-29 03:30N 40°45' W 074°05'0 0.0
2017-Dec-29 02:58N 40°45' W 074°05'0 0.0
2017-Dec-29 02:30N 40°45' W 074°05'0 0.3
2017-Dec-29 02:00N 40°45' W 074°04'0 0.0
2017-Dec-29 01:30N 40°45' W 074°04'0 0.0
2017-Dec-29 00:59N 40°45' W 074°04'0 0.0
2017-Dec-29 00:30N 40°45' W 074°04'0 0.0
2017-Dec-29 00:00N 40°45' W 074°04'0 0.0
2017-Dec-28 23:30N 40°45' W 074°04'0 0.0
2017-Dec-28 23:00N 40°45' W 074°04'0 0.0
2017-Dec-28 22:29N 40°45' W 074°04'0 0.0
2017-Dec-28 22:00N 40°45' W 074°04'0 0.0
2017-Dec-28 21:30N 40°45' W 074°04'0 0.0
2017-Dec-28 20:59N 40°45' W 074°04'0 0.0
2017-Dec-28 20:30N 40°45' W 074°04'0 0.0
2017-Dec-28 20:00N 40°45' W 074°04'0 0.0
2017-Dec-28 19:30N 40°45' W 074°04'0 0.0
2017-Dec-28 18:59N 40°45' W 074°04'0 0.0
2017-Dec-28 18:30N 40°45' W 074°04'0 0.0
2017-Dec-28 18:00N 40°45' W 074°04'0 0.0
2017-Dec-28 17:30N 40°45' W 074°04'0 0.0
2017-Dec-28 17:00N 40°45' W 074°04'0 0.0
2017-Dec-28 16:30N 40°45' W 074°04'0 0.0
2017-Dec-28 16:00N 40°45' W 074°04'0 0.0
2017-Dec-28 15:30N 40°45' W 074°04'0 0.0
2017-Dec-28 15:00N 40°45' W 074°04'0 0.0
2017-Dec-28 14:30N 40°45' W 074°04'0 0.0
2017-Dec-28 14:00N 40°45' W 074°04'0 0.0
2017-Dec-28 13:29N 40°45' W 074°04'0 0.0
2017-Dec-28 13:00N 40°45' W 074°04'0 0.0
2017-Dec-28 12:30N 40°45' W 074°04'0 0.0
2017-Dec-28 12:00N 40°45' W 074°04'0 0.0
2017-Dec-28 11:29N 40°45' W 074°04'0 0.0
2017-Dec-28 11:00N 40°45' W 074°04'0 0.0
2017-Dec-28 09:25N 40°45' W 074°04'0 0.0
2017-Dec-28 08:55N 40°45' W 074°04'0 0.0
2017-Dec-28 05:23N 40°45' W 074°04'0 0.0
2017-Dec-28 04:10N 40°45' W 074°04'0 0.0
2017-Dec-28 03:41N 40°45' W 074°04'0 0.0
2017-Dec-28 03:27N 40°45' W 074°04'0 0.0
2017-Dec-28 02:56N 40°45' W 074°04'0 0.0
2017-Dec-28 02:25N 40°45' W 074°04'0 0.0
2017-Dec-28 01:54N 40°45' W 074°04'0 0.0
2017-Dec-27 23:08N 40°45' W 074°04'0 0.0
2017-Dec-27 23:00N 40°45' W 074°04'0 0.0
2017-Dec-27 22:30N 40°45' W 074°04'0 0.0
2017-Dec-27 22:00N 40°45' W 074°04'0 0.0
2017-Dec-27 21:30N 40°45' W 074°04'0 0.0
2017-Dec-27 21:00N 40°45' W 074°04'0 0.0
2017-Dec-27 20:29N 40°45' W 074°04'0 0.0
2017-Dec-27 20:00N 40°45' W 074°04'0 0.0
2017-Dec-27 19:30N 40°45' W 074°04'0 0.0
2017-Dec-27 19:00N 40°45' W 074°04'0 0.0
2017-Dec-27 18:30N 40°45' W 074°04'0 0.0
2017-Dec-27 18:00N 40°45' W 074°04'0 0.0
2017-Dec-27 17:30N 40°45' W 074°04'  
2017-Dec-25 13:03N 40°45' W 074°04'0 0.1
2017-Dec-25 12:59N 40°45' W 074°04'0 0.0
2017-Dec-25 12:30N 40°45' W 074°04'0 0.0
2017-Dec-25 12:00N 40°45' W 074°04'0 0.0
2017-Dec-25 11:30N 40°45' W 074°04'0 0.0
2017-Dec-25 11:00N 40°45' W 074°04'0 0.0
2017-Dec-25 10:30N 40°45' W 074°04'0 0.0
2017-Dec-25 10:00N 40°45' W 074°04'0 0.0
2017-Dec-25 09:30N 40°45' W 074°04'0 0.0
2017-Dec-25 09:00N 40°45' W 074°04'0 0.0
2017-Dec-25 08:30N 40°45' W 074°04'0 0.0
2017-Dec-25 08:00N 40°45' W 074°04'0 0.0
2017-Dec-25 07:30N 40°45' W 074°04'0 0.0
2017-Dec-25 07:00N 40°45' W 074°04'0 0.0
2017-Dec-25 06:30N 40°45' W 074°04'0 0.0
2017-Dec-25 06:00N 40°45' W 074°04'0 0.0
2017-Dec-25 05:30N 40°45' W 074°04'0 0.0
2017-Dec-25 05:00N 40°45' W 074°04'0 0.0
2017-Dec-25 04:30N 40°45' W 074°04'0 0.0
2017-Dec-25 04:00N 40°45' W 074°04'0 0.0
2017-Dec-25 03:30N 40°45' W 074°04'0 0.0
2017-Dec-25 03:00N 40°45' W 074°04'0 0.0
2017-Dec-25 02:30N 40°45' W 074°04'0 0.0
2017-Dec-25 02:00N 40°45' W 074°04'0 0.0
2017-Dec-25 01:30N 40°45' W 074°04'0 0.0
2017-Dec-25 01:00N 40°45' W 074°04'0 0.0
2017-Dec-25 00:30N 40°45' W 074°04'0 0.0
2017-Dec-25 00:00N 40°45' W 074°04'0 0.0
2017-Dec-24 23:30N 40°45' W 074°04'0 0.0
2017-Dec-24 23:00N 40°45' W 074°04'0 0.0
2017-Dec-24 22:29N 40°45' W 074°04'0 0.0
2017-Dec-24 22:00N 40°45' W 074°04'0 0.0
2017-Dec-24 21:30N 40°45' W 074°04'0 0.0
2017-Dec-24 20:59N 40°45' W 074°04'0 0.0
2017-Dec-24 20:30N 40°45' W 074°04'0 0.0
2017-Dec-24 20:00N 40°45' W 074°04'0 0.0
2017-Dec-24 19:30N 40°45' W 074°04'0 0.0
2017-Dec-24 19:00N 40°45' W 074°04'0 0.0
2017-Dec-24 18:30N 40°45' W 074°04'0 0.0
2017-Dec-24 18:00N 40°45' W 074°04'0 0.0
2017-Dec-24 17:30N 40°45' W 074°04'0 0.0
2017-Dec-24 17:00N 40°45' W 074°04'0 0.0
2017-Dec-24 16:30N 40°45' W 074°04'0 0.0
2017-Dec-24 16:00N 40°45' W 074°04'0 0.0
2017-Dec-24 15:30N 40°45' W 074°04'0 0.0
2017-Dec-24 15:00N 40°45' W 074°04'0 0.0
2017-Dec-24 14:30N 40°45' W 074°04'0 0.0
2017-Dec-24 14:00N 40°45' W 074°04'0 0.0
2017-Dec-24 13:00N 40°45' W 074°04'0 0.0
2017-Dec-24 12:30N 40°45' W 074°04'0 0.0
2017-Dec-24 12:00N 40°45' W 074°04'0 0.0
2017-Dec-24 11:30N 40°45' W 074°04'0 0.0
2017-Dec-24 11:00N 40°45' W 074°04'0 0.0
2017-Dec-24 10:30N 40°45' W 074°04'0 0.0
2017-Dec-24 10:00N 40°45' W 074°04'0 0.0
2017-Dec-24 09:30N 40°45' W 074°04'0 0.0
2017-Dec-24 09:00N 40°45' W 074°04'0 0.0
2017-Dec-24 08:30N 40°45' W 074°04'0 0.0
2017-Dec-24 08:00N 40°45' W 074°04'0 0.0
2017-Dec-24 07:30N 40°45' W 074°04'0 0.0
2017-Dec-24 07:00N 40°45' W 074°04'0 0.0
2017-Dec-24 06:29N 40°45' W 074°04'0 0.0
2017-Dec-24 06:00N 40°45' W 074°04'0 0.0
2017-Dec-24 05:30N 40°45' W 074°04'0 0.0
2017-Dec-24 05:00N 40°45' W 074°04'0 0.0
2017-Dec-24 04:30N 40°45' W 074°04'0 0.0
2017-Dec-24 04:00N 40°45' W 074°04'0 0.0
2017-Dec-24 03:29N 40°45' W 074°04'0 0.0
2017-Dec-24 03:00N 40°45' W 074°04'0 0.0
2017-Dec-24 02:30N 40°45' W 074°04'0 0.0
2017-Dec-24 02:00N 40°45' W 074°04'0 0.0
2017-Dec-24 01:30N 40°45' W 074°04'0 0.0
2017-Dec-24 01:00N 40°45' W 074°04'0 0.0
2017-Dec-24 00:30N 40°45' W 074°04'0 0.0
2017-Dec-24 00:00N 40°45' W 074°04'0 0.0
2017-Dec-23 23:30N 40°45' W 074°04'0 0.0
2017-Dec-23 23:00N 40°45' W 074°04'0 0.0
2017-Dec-23 22:30N 40°45' W 074°04'0 0.0
2017-Dec-23 22:00N 40°45' W 074°04'0 0.0
2017-Dec-23 21:30N 40°45' W 074°04'0 0.0
2017-Dec-23 21:00N 40°45' W 074°04'0 0.0
2017-Dec-23 20:30N 40°45' W 074°04'0 0.0
2017-Dec-23 20:00N 40°45' W 074°04'0 0.0
2017-Dec-23 19:30N 40°45' W 074°04'0 0.0
2017-Dec-23 19:00N 40°45' W 074°04'0 0.0
2017-Dec-23 18:30N 40°45' W 074°04'0 0.0
2017-Dec-23 18:00N 40°45' W 074°04'0 0.0
2017-Dec-23 17:30N 40°45' W 074°04'0 0.0
2017-Dec-23 17:00N 40°45' W 074°04'0 0.0
2017-Dec-23 16:30N 40°45' W 074°04'0 0.0
2017-Dec-23 16:00N 40°45' W 074°04'0 0.0
2017-Dec-23 15:30N 40°45' W 074°04'0 0.0
2017-Dec-23 15:00N 40°45' W 074°04'0 0.0
2017-Dec-23 14:30N 40°45' W 074°04'0 0.0
2017-Dec-23 14:00N 40°45' W 074°04'0 0.0
2017-Dec-23 13:30N 40°45' W 074°04'0 0.0
2017-Dec-23 13:00N 40°45' W 074°04'0 0.0
2017-Dec-23 12:30N 40°45' W 074°04'0 0.0
2017-Dec-23 12:00N 40°45' W 074°04'0 0.0
2017-Dec-23 11:30N 40°45' W 074°04'0 0.0
2017-Dec-23 11:00N 40°45' W 074°04'0 0.0
2017-Dec-23 10:30N 40°45' W 074°04'0 0.0
2017-Dec-23 10:00N 40°45' W 074°04'0 0.0
2017-Dec-23 09:30N 40°45' W 074°04'0 0.0
2017-Dec-23 09:00N 40°45' W 074°04'0 0.0
2017-Dec-23 08:30N 40°45' W 074°04'0 0.0
2017-Dec-23 08:00N 40°45' W 074°04'0 0.0
2017-Dec-23 07:30N 40°45' W 074°04'0 0.0
2017-Dec-23 07:00N 40°45' W 074°04'0 0.0
2017-Dec-23 06:30N 40°45' W 074°04'0 0.0
2017-Dec-23 06:00N 40°45' W 074°04'0 0.0
2017-Dec-23 05:30N 40°45' W 074°04'0 0.0
2017-Dec-23 05:00N 40°45' W 074°04'0 0.0
2017-Dec-23 04:30N 40°45' W 074°04'0 0.0
2017-Dec-23 04:00N 40°45' W 074°04'0 0.0
2017-Dec-23 03:30N 40°45' W 074°04'0 0.0
2017-Dec-23 03:00N 40°45' W 074°04'0 0.0
2017-Dec-23 02:30N 40°45' W 074°04'0 0.0
2017-Dec-23 02:00N 40°45' W 074°04'0 0.0
2017-Dec-23 01:30N 40°45' W 074°04'0 0.0
2017-Dec-23 01:00N 40°45' W 074°04'0 0.0
2017-Dec-23 00:30N 40°45' W 074°04'0 0.0
2017-Dec-23 00:00N 40°45' W 074°04'0 0.0
2017-Dec-22 23:30N 40°45' W 074°04'0 0.0
2017-Dec-22 23:00N 40°45' W 074°04'0 0.0
2017-Dec-22 22:30N 40°45' W 074°04'0 0.0
2017-Dec-22 22:00N 40°45' W 074°04'0 0.0
2017-Dec-22 21:30N 40°45' W 074°04'0 0.0
2017-Dec-22 21:00N 40°45' W 074°04'0 0.0
2017-Dec-22 20:30N 40°45' W 074°04'0 0.0
2017-Dec-22 20:00N 40°45' W 074°04'0 0.0
2017-Dec-22 19:30N 40°45' W 074°04'0 0.0
2017-Dec-22 19:00N 40°45' W 074°04'0 0.0
2017-Dec-22 18:30N 40°45' W 074°04'0 0.0
2017-Dec-22 18:00N 40°45' W 074°04'0 0.0
2017-Dec-22 17:30N 40°45' W 074°04'0 0.0
2017-Dec-22 17:00N 40°45' W 074°04'0 0.0
2017-Dec-22 16:30N 40°45' W 074°04'0 0.0
2017-Dec-22 16:00N 40°45' W 074°04'0 0.0
2017-Dec-22 15:30N 40°45' W 074°04'0 0.0
2017-Dec-22 15:00N 40°45' W 074°04'0 0.0
2017-Dec-22 14:30N 40°45' W 074°04'0 0.0
2017-Dec-22 14:00N 40°45' W 074°04'0 0.0
2017-Dec-22 13:30N 40°45' W 074°04'0 0.0
2017-Dec-22 13:00N 40°45' W 074°04'0 0.0
2017-Dec-22 12:30N 40°45' W 074°04'0 0.0
2017-Dec-22 12:00N 40°45' W 074°04'0 0.0
2017-Dec-22 11:30N 40°45' W 074°04'0 0.0
2017-Dec-22 11:00N 40°45' W 074°04'0 0.0
2017-Dec-22 10:30N 40°45' W 074°04'0 0.0
2017-Dec-22 10:00N 40°45' W 074°04'0 0.0
2017-Dec-22 09:30N 40°45' W 074°04'0 0.0
2017-Dec-22 09:00N 40°45' W 074°04'0 0.0
2017-Dec-22 08:30N 40°45' W 074°04'0 0.0
2017-Dec-22 07:59N 40°45' W 074°04'0 0.0
2017-Dec-22 07:30N 40°45' W 074°04'0 0.0
2017-Dec-22 07:00N 40°45' W 074°04'0 0.0
2017-Dec-22 06:30N 40°45' W 074°04'0 0.0
2017-Dec-22 06:00N 40°45' W 074°04'0 0.0
2017-Dec-22 05:30N 40°45' W 074°04'0 0.0
2017-Dec-22 05:00N 40°45' W 074°04'0 0.0
2017-Dec-22 04:30N 40°45' W 074°04'0 0.0
2017-Dec-22 04:00N 40°45' W 074°04'0 0.0
2017-Dec-22 03:29N 40°45' W 074°04'0 0.0
2017-Dec-22 03:00N 40°45' W 074°04'0 0.0
2017-Dec-22 02:30N 40°45' W 074°04'0 0.0
2017-Dec-22 02:00N 40°45' W 074°04'0 0.0
2017-Dec-22 01:30N 40°45' W 074°04'0 0.0
2017-Dec-22 01:00N 40°45' W 074°04'0 0.0
2017-Dec-22 00:30N 40°45' W 074°04'0 0.0
2017-Dec-22 00:00N 40°45' W 074°04'0 0.0
2017-Dec-21 23:30N 40°45' W 074°04'0 0.0
2017-Dec-21 23:00N 40°45' W 074°04'0 0.0
2017-Dec-21 22:30N 40°45' W 074°04'0 0.0
2017-Dec-21 22:00N 40°45' W 074°04'0 0.0
2017-Dec-21 21:30N 40°45' W 074°04'0 0.0
2017-Dec-21 21:00N 40°45' W 074°04'0 0.0
2017-Dec-21 20:30N 40°45' W 074°04'0 0.0
2017-Dec-21 20:00N 40°45' W 074°04'0 0.0
2017-Dec-21 19:30N 40°45' W 074°04'0 0.0
2017-Dec-21 19:00N 40°45' W 074°04'0 0.0
2017-Dec-21 18:30N 40°45' W 074°04'0 0.0
2017-Dec-21 18:00N 40°45' W 074°04'0 0.0
2017-Dec-21 17:30N 40°45' W 074°04'0 0.0
2017-Dec-21 17:00N 40°45' W 074°04'0 0.0
2017-Dec-21 16:30N 40°45' W 074°04'0 0.0
2017-Dec-21 16:00N 40°45' W 074°04'0 0.0
2017-Dec-21 15:29N 40°45' W 074°04'0 0.0
2017-Dec-21 15:00N 40°45' W 074°04'0 0.0
2017-Dec-21 14:29N 40°45' W 074°04'0 0.0
2017-Dec-21 14:00N 40°45' W 074°04'0 0.0
2017-Dec-21 13:30N 40°45' W 074°04'0 0.0
2017-Dec-21 13:00N 40°45' W 074°04'0 0.0
2017-Dec-21 12:30N 40°45' W 074°04'0 0.0
2017-Dec-21 12:00N 40°45' W 074°04'0 0.0
2017-Dec-21 11:30N 40°45' W 074°04'0 0.0
2017-Dec-21 11:00N 40°45' W 074°04'0 0.0
2017-Dec-21 10:30N 40°45' W 074°04'0 0.0
2017-Dec-21 10:00N 40°45' W 074°04'0 0.0
2017-Dec-21 09:30N 40°45' W 074°04'0 0.0
2017-Dec-21 09:00N 40°45' W 074°04'0 0.0
2017-Dec-21 08:30N 40°45' W 074°04'0 0.0
2017-Dec-21 08:00N 40°45' W 074°04'0 0.0
2017-Dec-21 07:30N 40°45' W 074°04'0 0.0
2017-Dec-21 07:00N 40°45' W 074°04'0 0.0
2017-Dec-21 06:30N 40°45' W 074°04'0 0.0
2017-Dec-21 06:00N 40°45' W 074°04'0 0.0
2017-Dec-21 05:29N 40°45' W 074°04'0 0.2
2017-Dec-21 05:00N 40°45' W 074°04'0 0.0
2017-Dec-21 04:30N 40°45' W 074°04'0 0.0
2017-Dec-21 04:00N 40°45' W 074°04'0 0.0
2017-Dec-21 03:30N 40°45' W 074°04'0 0.0
2017-Dec-21 03:00N 40°45' W 074°04'0 0.0
2017-Dec-21 02:30N 40°45' W 074°04'0 0.0
2017-Dec-21 02:00N 40°45' W 074°04'0 0.0
2017-Dec-21 01:30N 40°45' W 074°04'0 0.0
2017-Dec-21 01:00N 40°45' W 074°04'0 0.0
2017-Dec-21 00:30N 40°45' W 074°04'0 0.0
2017-Dec-21 00:00N 40°45' W 074°04'0 0.0
2017-Dec-20 23:30N 40°45' W 074°04'0 0.0
2017-Dec-20 23:00N 40°45' W 074°04'0 0.0
2017-Dec-20 22:30N 40°45' W 074°04'0 0.0
2017-Dec-20 22:00N 40°45' W 074°04'0 0.0
2017-Dec-20 21:30N 40°45' W 074°04'0 0.0
2017-Dec-20 21:00N 40°45' W 074°04'0 0.0
2017-Dec-20 20:30N 40°45' W 074°04'0 0.0
2017-Dec-20 20:00N 40°45' W 074°04'0 0.0
2017-Dec-20 19:30N 40°45' W 074°04'0 0.0
2017-Dec-20 19:00N 40°45' W 074°04'0 0.0
2017-Dec-20 18:30N 40°45' W 074°04'0 0.0
2017-Dec-20 18:00N 40°45' W 074°04'0 0.0
2017-Dec-20 17:30N 40°45' W 074°04'0 0.0
2017-Dec-20 17:00N 40°45' W 074°04'0 0.0
2017-Dec-20 16:30N 40°45' W 074°04'0 0.0
2017-Dec-20 16:00N 40°45' W 074°04'0 0.0
2017-Dec-20 15:30N 40°45' W 074°04'0 0.0
2017-Dec-20 15:00N 40°45' W 074°04'0 0.0
2017-Dec-20 14:30N 40°45' W 074°04'0 0.0
2017-Dec-20 14:00N 40°45' W 074°04'0 0.0
2017-Dec-20 13:30N 40°45' W 074°04'0 0.0
2017-Dec-20 13:00N 40°45' W 074°04'0 0.0
2017-Dec-20 12:30N 40°45' W 074°04'0 0.0
2017-Dec-20 12:00N 40°45' W 074°04'0 0.0
2017-Dec-20 11:30N 40°45' W 074°04'0 0.0
2017-Dec-20 11:00N 40°45' W 074°04'0 0.0
2017-Dec-20 10:30N 40°45' W 074°04'0 0.0
2017-Dec-20 10:00N 40°45' W 074°04'0 0.0
2017-Dec-20 09:30N 40°45' W 074°04'0 0.0
2017-Dec-20 09:00N 40°45' W 074°04'0 0.0
2017-Dec-20 08:30N 40°45' W 074°04'0 0.0
2017-Dec-20 08:00N 40°45' W 074°04'0 0.0
2017-Dec-20 07:30N 40°45' W 074°04'0 0.0
2017-Dec-20 07:00N 40°45' W 074°04'0 0.0
2017-Dec-20 06:30N 40°45' W 074°04'0 0.0
2017-Dec-20 06:00N 40°45' W 074°04'0 0.0
2017-Dec-20 05:30N 40°45' W 074°04'0 0.0
2017-Dec-20 05:00N 40°45' W 074°04'0 0.0
2017-Dec-20 04:30N 40°45' W 074°04'0 0.0
2017-Dec-20 04:00N 40°45' W 074°04'0 0.0
2017-Dec-20 03:30N 40°45' W 074°04'0 0.0
2017-Dec-20 03:00N 40°45' W 074°04'0 0.0
2017-Dec-20 02:30N 40°45' W 074°04'0 0.0
2017-Dec-20 02:00N 40°45' W 074°04'0 0.0
2017-Dec-20 01:30N 40°45' W 074°04'0 0.0
2017-Dec-20 01:00N 40°45' W 074°04'0 0.0
2017-Dec-20 00:30N 40°45' W 074°04'0 0.0
2017-Dec-19 23:59N 40°45' W 074°04'0 0.0
2017-Dec-19 23:30N 40°45' W 074°04'0 0.0
2017-Dec-19 23:00N 40°45' W 074°04'0 0.0
2017-Dec-19 22:30N 40°45' W 074°04'0 0.0
2017-Dec-19 22:00N 40°45' W 074°04'0 0.0
2017-Dec-19 21:30N 40°45' W 074°04'0 0.0
2017-Dec-19 21:00N 40°45' W 074°04'0 0.0
2017-Dec-19 20:30N 40°45' W 074°04'0 0.1
2017-Dec-19 19:59N 40°45' W 074°04'0 0.0
2017-Dec-19 19:30N 40°45' W 074°04'0 0.0
2017-Dec-19 19:00N 40°45' W 074°04'  

Dump ship's entire track history